Bath, Illinois
Current Conditions -  °F | °C
As of 5:35 PM on Saturday 22 Nov 2014 (Local Time) from KIJX Reporting Station
Scattered Clouds Scattered Clouds  
Wind Chill: 56°   Ceiling: Unl
Heat Index: 56°   Visibility: 10mi
Dew Point: 49°   Wind: 13mph
Humidity: 78%   Direction: 190°S
Pressure: 29.9"   Gusts: 22mph
Location:  40.19°N, 90.14°W
Report Text: KIJX 222335Z AUTO 19011G19KT 10SM SCT021 SCT085 13/10 A2990 RMK AO2 T01330095
Loading
Personal Weather Stations






























Interactive Weather Map New forecast layout! Learn more

10-Day Weather Forecast

Advertisements
Track Severe Weather on mobile